createdAt,value
2018-08-10T09:04:17.259Z,61.22
2018-08-10T09:05:17.243Z,60.45
2018-08-10T09:06:17.245Z,59.97
2018-08-10T09:07:17.255Z,60.45
2018-08-10T09:08:17.256Z,61.03
2018-08-10T09:09:17.261Z,60.64
2018-08-10T09:10:17.268Z,60.61
2018-08-10T09:11:17.281Z,58.97
2018-08-10T09:12:17.279Z,59.81
2018-08-10T09:13:17.285Z,61.48
2018-08-10T09:14:17.298Z,61.35
2018-08-10T09:15:17.299Z,59.81
2018-08-10T09:16:17.302Z,61.07
2018-08-10T09:17:17.443Z,61.45
2018-08-10T09:18:17.313Z,61.00
2018-08-10T09:19:17.325Z,60.32
2018-08-10T09:20:17.411Z,58.78
2018-08-10T09:21:17.335Z,59.65
2018-08-10T09:22:17.339Z,59.65
2018-08-10T09:23:17.363Z,59.75
2018-08-10T09:24:17.352Z,59.07
2018-08-10T09:25:17.357Z,58.78
2018-08-10T09:26:17.399Z,59.75
2018-08-10T09:27:17.370Z,60.16
2018-08-10T09:28:17.378Z,59.00
2018-08-10T09:29:17.382Z,59.58
2018-08-10T09:30:17.390Z,58.23
2018-08-10T09:31:17.396Z,58.14
2018-08-10T09:32:17.401Z,57.43
2018-08-10T09:33:17.406Z,56.66
2018-08-10T09:34:17.418Z,57.43
2018-08-10T09:35:17.423Z,56.82
2018-08-10T09:36:17.432Z,58.08
2018-08-10T09:37:17.434Z,58.65
2018-08-10T09:38:17.441Z,58.97
2018-08-10T09:39:17.448Z,59.45
2018-08-10T09:40:17.455Z,59.68
2018-08-10T09:41:17.458Z,58.81
2018-08-10T09:42:17.490Z,59.58
2018-08-10T09:43:17.472Z,58.26
2018-08-10T09:44:17.480Z,58.75
2018-08-10T09:45:17.541Z,58.65
2018-08-10T09:46:17.491Z,57.20
2018-08-10T09:47:17.499Z,56.24
2018-08-10T09:48:17.506Z,56.72
2018-08-10T09:49:17.515Z,57.10
2018-08-10T09:50:17.518Z,54.88
2018-08-10T09:51:17.525Z,54.98
2018-08-10T09:52:17.534Z,55.36
2018-08-10T09:53:17.539Z,55.85
2018-08-10T09:54:17.547Z,56.69
2018-08-10T09:55:17.554Z,56.79
2018-08-10T09:56:17.560Z,57.27
2018-08-10T09:57:17.567Z,57.65
2018-08-10T09:58:17.579Z,57.24
2018-08-10T09:59:17.610Z,58.59
2018-08-10T10:00:17.620Z,58.69
2018-08-10T10:01:17.593Z,59.65
2018-08-10T10:02:17.599Z,58.78
2018-08-10T10:03:17.607Z,59.36
2018-08-10T10:04:17.613Z,58.49
2018-08-10T10:05:17.619Z,58.78
2018-08-10T10:06:17.626Z,60.93
2018-08-10T10:07:17.633Z,59.30
2018-08-10T10:08:17.639Z,58.91
2018-08-10T10:09:17.648Z,57.87
2018-08-10T10:10:17.653Z,57.49
2018-08-10T10:11:17.657Z,57.90
2018-08-10T10:12:17.667Z,58.39
2018-08-10T10:13:17.672Z,57.14
2018-08-10T10:14:17.678Z,57.42
2018-08-10T10:15:17.686Z,57.35
2018-08-10T10:16:17.692Z,55.90
2018-08-10T10:17:17.744Z,56.99
2018-08-10T10:18:17.708Z,55.07
2018-08-10T10:19:17.713Z,55.83
2018-08-10T10:20:17.727Z,54.19
2018-08-10T10:21:17.729Z,54.32
2018-08-10T10:22:17.737Z,52.97
2018-08-10T10:23:17.744Z,52.97
2018-08-10T10:24:17.753Z,52.77
2018-08-10T10:25:17.760Z,53.25
2018-08-10T10:26:17.765Z,54.22
2018-08-10T10:27:17.865Z,52.97
2018-08-10T10:28:17.780Z,52.55
2018-08-10T10:29:17.789Z,53.52
2018-08-10T10:30:17.797Z,53.78
2018-08-10T10:31:17.806Z,53.39
2018-08-10T10:32:17.811Z,53.47
2018-08-10T10:33:17.819Z,54.05
2018-08-10T10:34:17.829Z,55.49
2018-08-10T10:35:17.836Z,56.36
2018-08-10T10:36:17.842Z,56.26
2018-08-10T10:37:17.852Z,55.78
2018-08-10T10:38:17.856Z,56.26
2018-08-10T10:39:17.864Z,57.32
2018-08-10T10:40:17.874Z,57.49
2018-08-10T10:41:17.908Z,56.72
2018-08-10T10:42:17.885Z,56.24
2018-08-10T10:43:17.893Z,55.08
2018-08-10T10:44:17.902Z,55.85
2018-08-10T10:45:17.907Z,55.73
2018-08-10T10:46:17.913Z,55.44
2018-08-10T10:47:17.975Z,56.30
2018-08-10T10:48:17.927Z,55.82
2018-08-10T10:49:17.934Z,55.44
2018-08-10T10:50:17.941Z,54.66
2018-08-10T10:51:17.951Z,54.96
2018-08-10T10:52:17.957Z,54.86
2018-08-10T10:53:17.960Z,55.34
2018-08-10T10:54:17.971Z,55.05
2018-08-10T10:55:17.978Z,54.18
2018-08-10T10:56:17.982Z,54.96
2018-08-10T10:57:17.987Z,54.64
2018-08-10T10:58:18.001Z,55.24
2018-08-10T10:59:18.004Z,54.86
2018-08-10T11:00:18.015Z,55.76
2018-08-10T11:01:18.018Z,55.08
2018-08-10T11:02:18.034Z,55.78
2018-08-10T11:03:18.042Z,55.59
2018-08-10T11:04:18.038Z,53.88
2018-08-10T11:05:18.043Z,52.17
2018-08-10T11:06:18.091Z,49.37
2018-08-10T11:07:18.081Z,47.63
2018-08-10T11:08:18.065Z,45.21
2018-08-10T11:09:18.081Z,46.58
2018-08-10T11:10:18.086Z,45.62
2018-08-10T11:11:18.092Z,48.13
2018-08-10T11:12:18.095Z,47.38
2018-08-10T11:13:18.099Z,46.80
2018-08-10T11:14:18.113Z,46.70
2018-08-10T11:15:18.116Z,46.90
2018-08-10T11:16:18.125Z,46.92
2018-08-10T11:17:18.133Z,46.73
2018-08-10T11:18:18.141Z,46.05
2018-08-10T11:19:18.147Z,45.08
2018-08-10T11:20:18.167Z,45.95
2018-08-10T11:21:18.164Z,45.86
2018-08-10T11:22:18.173Z,43.85
2018-08-10T11:23:18.183Z,43.55
2018-08-10T11:24:18.188Z,43.95
2018-08-10T11:25:18.286Z,44.60
2018-08-10T11:26:18.206Z,44.23
2018-08-10T11:27:18.213Z,42.57
2018-08-10T11:28:18.223Z,42.08
2018-08-10T11:29:18.229Z,42.57
2018-08-10T11:30:18.258Z,43.15
2018-08-10T11:31:18.247Z,44.70
2018-08-10T11:32:18.256Z,43.92
2018-08-10T11:33:18.268Z,44.79
2018-08-10T11:34:18.273Z,44.40
2018-08-10T11:35:18.280Z,44.72
2018-08-10T11:36:18.289Z,44.12
2018-08-10T11:37:18.300Z,43.63
2018-08-10T11:38:18.318Z,42.57
2018-08-10T11:39:18.316Z,42.55
2018-08-10T11:40:18.324Z,43.51
2018-08-10T11:41:18.334Z,43.51
2018-08-10T11:42:18.344Z,42.72
2018-08-10T11:43:18.354Z,43.88
2018-08-10T11:44:18.362Z,45.33
2018-08-10T11:45:18.367Z,44.63
2018-08-10T11:46:18.376Z,46.08
2018-08-10T11:47:18.382Z,43.98
2018-08-10T11:48:18.395Z,44.75
2018-08-10T11:49:18.400Z,43.68
2018-08-10T11:50:18.408Z,43.40
2018-08-10T11:51:18.416Z,44.57
2018-08-10T11:52:18.425Z,43.40
2018-08-10T11:53:18.434Z,44.09
2018-08-10T11:54:18.441Z,43.80
2018-08-10T11:55:18.450Z,43.13
2018-08-10T11:56:18.459Z,43.23
2018-08-10T11:57:18.478Z,42.74
2018-08-10T11:58:18.474Z,43.51
2018-08-10T11:59:18.485Z,43.80
2018-08-10T12:00:18.493Z,42.45
2018-08-10T12:01:18.499Z,42.93
2018-08-10T12:02:18.506Z,42.83
2018-08-10T12:03:18.519Z,42.33
2018-08-10T12:04:18.525Z,43.13
2018-08-10T12:05:18.531Z,44.19
2018-08-10T12:06:18.622Z,43.61
2018-08-10T12:07:18.548Z,43.80
2018-08-10T12:08:18.557Z,40.81
2018-08-10T12:09:18.565Z,41.29
2018-08-10T12:10:18.575Z,42.86
2018-08-10T12:11:18.582Z,41.50
2018-08-10T12:12:18.594Z,41.79
2018-08-10T12:13:18.599Z,41.60
2018-08-10T12:14:18.608Z,41.41
2018-08-10T12:15:18.617Z,42.40
2018-08-10T12:16:18.625Z,41.42
2018-08-10T12:17:18.633Z,39.59
2018-08-10T12:18:18.642Z,39.39
2018-08-10T12:19:18.651Z,40.56
2018-08-10T12:20:18.668Z,39.51
2018-08-10T12:21:18.668Z,39.78
2018-08-10T12:22:18.682Z,38.89
2018-08-10T12:23:18.688Z,39.20
2018-08-10T12:24:18.694Z,39.47
2018-08-10T12:25:26.378Z,38.79
2018-08-10T12:27:23.196Z,38.68
2018-08-10T12:28:13.122Z,39.24
2018-08-10T12:29:13.132Z,39.72
2018-08-10T12:30:13.195Z,40.30
2018-08-10T12:31:13.151Z,41.08
2018-08-10T12:32:13.160Z,40.40
2018-08-10T12:33:13.163Z,41.46
2018-08-10T12:34:13.171Z,41.35
2018-08-10T12:35:13.187Z,41.73
2018-08-10T12:36:13.188Z,41.93
2018-08-10T12:37:13.196Z,41.63
2018-08-10T12:38:13.227Z,42.21
2018-08-10T12:39:13.211Z,42.41
2018-08-10T12:40:13.223Z,43.66
2018-08-10T12:41:13.229Z,44.26
2018-08-10T12:42:13.235Z,42.52
2018-08-10T12:43:13.255Z,42.91
2018-08-10T12:44:13.257Z,42.14
2018-08-10T12:45:13.269Z,42.79
2018-08-10T12:46:13.267Z,42.70
2018-08-10T12:47:13.276Z,42.89
2018-08-10T12:48:13.281Z,41.73
2018-08-10T12:49:13.323Z,43.28
2018-08-10T12:50:13.366Z,42.89
2018-08-10T12:51:13.305Z,43.18
2018-08-10T12:52:13.315Z,42.39
2018-08-10T12:53:13.324Z,42.77
2018-08-10T12:54:13.331Z,42.58
2018-08-10T12:55:13.344Z,44.32
2018-08-10T12:56:13.347Z,43.93
2018-08-10T12:57:13.353Z,44.03
2018-08-10T12:58:13.363Z,43.45
2018-08-10T12:59:13.369Z,43.84
2018-08-10T13:00:13.378Z,43.45
2018-08-10T13:01:13.382Z,45.09
2018-08-10T13:03:36.472Z,45.01
2018-08-10T13:04:37.259Z,45.59
2018-08-10T13:05:47.505Z,46.56
2018-08-10T13:07:40.951Z,44.75
2018-08-10T13:08:30.999Z,42.43
2018-08-10T13:09:38.129Z,43.30
2018-08-10T13:11:25.320Z,42.33
2018-08-10T13:14:18.785Z,42.21
2018-08-10T13:15:27.607Z,42.82
2018-08-10T13:17:13.268Z,43.57
2018-08-10T13:18:13.214Z,43.28
2018-08-10T13:19:13.216Z,43.18
2018-08-10T13:20:13.225Z,43.08
2018-08-10T13:21:13.233Z,43.95
2018-08-10T13:22:13.237Z,43.47
2018-08-10T13:23:13.245Z,43.54
2018-08-10T13:24:13.253Z,42.68
2018-08-10T13:26:47.192Z,43.16
2018-08-10T13:27:37.179Z,42.48
2018-08-10T13:28:37.182Z,43.06
2018-08-10T13:31:00.279Z,43.26
2018-08-10T13:32:00.261Z,42.97
2018-08-10T13:33:00.269Z,42.79
2018-08-10T13:34:00.277Z,42.31
2018-08-10T13:35:00.282Z,42.12
2018-08-10T13:36:00.290Z,41.93
2018-08-10T13:37:00.297Z,41.05
2018-08-10T13:38:00.303Z,41.25
2018-08-10T13:39:00.329Z,42.12
2018-08-10T13:40:00.318Z,42.29
2018-08-10T13:41:00.411Z,42.58
2018-08-10T13:42:00.333Z,41.81
2018-08-10T13:43:00.341Z,42.10
2018-08-10T13:44:00.349Z,42.77
2018-08-10T13:45:00.354Z,42.39
2018-08-10T13:46:00.361Z,41.81
2018-08-10T13:47:00.370Z,41.13
2018-08-10T13:48:00.380Z,41.91
2018-08-10T13:49:00.385Z,41.33
2018-08-10T13:50:00.391Z,42.89
2018-08-10T13:51:00.401Z,42.12
2018-08-10T13:52:00.416Z,42.24
2018-08-10T13:53:00.417Z,41.27
2018-08-10T13:54:00.421Z,39.62
2018-08-10T13:55:00.437Z,39.92
2018-08-10T13:56:00.436Z,40.01
2018-08-10T13:57:00.443Z,39.34
2018-08-10T13:58:00.460Z,39.43
2018-08-10T13:59:00.459Z,39.99
2018-08-10T14:00:00.469Z,40.09
2018-08-10T14:01:00.476Z,41.44
2018-08-10T14:02:00.484Z,40.96
2018-08-10T14:03:00.490Z,40.77
2018-08-10T14:04:00.499Z,40.47
2018-08-10T14:06:33.650Z,43.01
2018-08-10T14:07:23.925Z,41.77
2018-08-10T14:08:23.670Z,40.90
2018-08-10T14:09:23.606Z,39.64
2018-08-10T14:10:23.621Z,40.52
2018-08-10T14:11:23.628Z,40.63
2018-08-10T14:12:23.630Z,38.58
2018-08-10T14:13:23.639Z,38.78
2018-08-10T14:14:23.643Z,38.97
2018-08-10T14:15:23.651Z,40.13
2018-08-10T14:16:23.661Z,40.42
2018-08-10T14:17:23.668Z,40.59
2018-08-10T14:18:23.679Z,40.59
2018-08-10T14:19:24.063Z,39.92
2018-08-10T14:20:23.693Z,39.82
2018-08-10T14:21:23.701Z,40.88
2018-08-10T14:22:23.709Z,40.61
2018-08-10T14:23:23.717Z,41.09
2018-08-10T14:24:23.726Z,39.94
2018-08-10T14:25:23.738Z,38.78
2018-08-10T14:26:23.766Z,39.26
2018-08-10T14:27:23.761Z,39.47
2018-08-10T14:28:23.764Z,39.55
2018-08-10T14:29:23.773Z,40.42
2018-08-10T14:30:23.774Z,40.44
2018-08-10T14:31:23.783Z,39.55
2018-08-10T14:32:23.792Z,40.03
2018-08-10T14:33:23.813Z,40.13
2018-08-10T14:34:23.805Z,39.72
2018-08-10T14:35:23.816Z,40.69
2018-08-10T14:36:23.823Z,40.88
2018-08-10T14:37:23.829Z,40.96
2018-08-10T14:38:23.838Z,42.12
2018-08-10T14:39:23.848Z,41.75
2018-08-10T14:40:23.857Z,42.12
2018-08-10T14:41:23.932Z,42.14
2018-08-10T14:42:23.869Z,42.82
2018-08-10T14:43:23.882Z,42.82
2018-08-10T14:44:23.886Z,43.49
2018-08-10T14:45:23.893Z,42.41
2018-08-10T14:46:23.900Z,42.60
2018-08-10T14:47:23.909Z,43.18
2018-08-10T14:48:23.916Z,43.47
2018-08-10T14:49:23.922Z,43.85
2018-08-10T14:50:23.935Z,42.89
2018-08-10T14:51:23.939Z,42.89
2018-08-10T14:52:23.947Z,44.82
2018-08-10T14:53:23.954Z,43.85
2018-08-10T14:54:23.963Z,43.47
2018-08-10T14:55:23.972Z,43.66
2018-08-10T14:56:23.980Z,43.18
2018-08-10T14:57:23.985Z,43.47
2018-08-10T14:58:23.993Z,44.12
2018-08-10T14:59:24.000Z,43.45
2018-08-10T15:00:24.009Z,44.51
2018-08-10T15:01:24.013Z,43.54
2018-08-10T15:02:24.023Z,44.80
2018-08-10T15:03:24.030Z,44.22
2018-08-10T15:04:24.037Z,44.03
2018-08-10T15:06:56.176Z,44.32
2018-08-10T15:09:20.291Z,43.66
2018-08-10T15:10:11.040Z,43.37
2018-08-10T15:11:10.233Z,42.99
2018-08-10T15:12:10.430Z,43.08
2018-08-10T15:13:10.292Z,42.21
2018-08-10T15:14:10.298Z,41.83
2018-08-10T15:15:10.268Z,41.25
2018-08-10T15:16:19.342Z,41.83
2018-08-10T15:18:13.760Z,41.63
2018-08-10T15:19:03.692Z,40.98
2018-08-10T15:21:26.762Z,40.78
2018-08-10T15:22:26.764Z,40.71
2018-08-10T15:23:26.768Z,40.13
2018-08-10T15:24:26.776Z,40.23
2018-08-10T15:25:26.787Z,40.03
2018-08-10T15:26:26.792Z,40.52
2018-08-10T15:27:26.800Z,39.55
2018-08-10T15:28:26.807Z,40.90
2018-08-10T15:29:26.819Z,40.03
2018-08-10T15:30:26.823Z,41.00
2018-08-10T15:31:26.830Z,40.23
2018-08-10T15:32:26.842Z,40.03
2018-08-10T15:33:26.846Z,40.03
2018-08-10T15:34:26.855Z,40.42
2018-08-10T15:35:26.861Z,40.42
2018-08-10T15:36:26.871Z,40.42
2018-08-10T15:37:26.880Z,40.50
2018-08-10T15:38:26.931Z,40.50
2018-08-10T15:39:26.891Z,40.11
2018-08-10T15:40:26.900Z,40.50
2018-08-10T15:41:26.912Z,40.59
2018-08-10T15:42:26.915Z,40.59
2018-08-10T15:43:26.959Z,40.50
2018-08-10T15:44:26.930Z,40.50
2018-08-10T15:45:26.939Z,40.88
2018-08-10T15:46:26.946Z,41.75
2018-08-10T15:47:26.954Z,41.15
2018-08-10T15:48:26.962Z,40.88
2018-08-10T15:49:26.972Z,40.57
2018-08-10T15:50:26.983Z,40.47
2018-08-10T15:51:26.986Z,41.15
2018-08-10T15:52:26.994Z,40.28
2018-08-10T15:53:27.004Z,40.86
2018-08-10T15:54:27.008Z,41.05
2018-08-10T15:55:27.016Z,41.15
2018-08-10T15:56:27.028Z,41.15
2018-08-10T15:57:27.033Z,42.02
2018-08-10T15:58:27.039Z,41.83
2018-08-10T15:59:27.048Z,42.00
2018-08-10T16:00:27.055Z,42.39
2018-08-10T16:01:27.062Z,42.48
2018-08-10T16:02:27.072Z,42.39
2018-08-10T16:03:27.080Z,43.54
2018-08-10T16:04:27.082Z,42.41
2018-08-10T16:05:27.091Z,41.71
2018-08-10T16:06:27.097Z,42.31
2018-08-10T16:07:27.105Z,41.73
2018-08-10T16:08:27.115Z,42.21
2018-08-10T16:09:27.120Z,41.61
2018-08-10T16:10:27.129Z,41.91
2018-08-10T16:11:27.135Z,43.26
2018-08-10T16:12:27.144Z,42.19
2018-08-10T16:15:00.287Z,42.29
2018-08-10T16:15:50.219Z,42.58
2018-08-10T16:16:50.225Z,42.29
2018-08-10T16:17:50.235Z,42.39
2018-08-10T16:18:50.237Z,42.97
2018-08-10T16:19:50.243Z,42.68
2018-08-10T16:20:50.253Z,42.77
2018-08-10T16:21:50.266Z,41.81
2018-08-10T16:22:50.268Z,42.19
2018-08-10T16:23:50.273Z,42.58
2018-08-10T16:24:50.283Z,42.58
2018-08-10T16:25:50.289Z,42.12
2018-08-10T16:26:50.297Z,41.23
2018-08-10T16:27:50.305Z,41.33
2018-08-10T16:28:50.311Z,41.33
2018-08-10T16:29:50.320Z,41.52
2018-08-10T16:32:13.421Z,41.52
2018-08-10T16:33:13.393Z,41.52
2018-08-10T16:34:13.401Z,41.91
2018-08-10T16:35:13.408Z,42.00
2018-08-10T16:36:13.415Z,41.03
2018-08-10T16:37:13.425Z,42.12
2018-08-10T16:38:13.428Z,41.03
2018-08-10T16:39:13.437Z,41.15
2018-08-10T16:40:13.443Z,41.05
2018-08-10T16:41:13.449Z,42.12
2018-08-10T16:42:13.456Z,41.05
2018-08-10T16:43:13.467Z,40.96
2018-08-10T16:44:13.472Z,40.96
2018-08-10T16:45:13.483Z,41.44
2018-08-10T16:46:13.485Z,42.41
2018-08-10T16:47:13.504Z,41.83
2018-08-10T16:48:13.501Z,41.73
2018-08-10T16:49:13.510Z,41.54
2018-08-10T16:50:13.515Z,42.19
2018-08-10T16:51:13.523Z,42.00
2018-08-10T16:52:13.530Z,41.71
2018-08-10T16:53:13.539Z,41.52
2018-08-10T16:54:13.546Z,42.00
2018-08-10T16:55:13.550Z,41.23
2018-08-10T16:56:13.557Z,41.33
2018-08-10T16:57:13.591Z,41.03
2018-08-10T16:58:13.576Z,42.10
2018-08-10T16:59:13.580Z,42.99
2018-08-10T17:00:13.588Z,42.89
2018-08-10T17:01:13.594Z,42.12
2018-08-10T17:02:13.603Z,42.31
2018-08-10T17:03:13.607Z,41.73
2018-08-10T17:04:13.615Z,40.57
2018-08-10T17:05:13.658Z,41.15
2018-08-10T17:06:13.630Z,41.08
2018-08-10T17:07:13.641Z,40.86
2018-08-10T17:08:13.645Z,41.56
2018-08-10T17:09:13.652Z,41.56
2018-08-10T17:10:13.660Z,42.43
2018-08-10T17:11:13.666Z,41.17
2018-08-10T17:12:13.677Z,41.46
2018-08-10T17:13:13.682Z,40.98
2018-08-10T17:14:13.707Z,40.59
2018-08-10T17:15:13.698Z,41.17
2018-08-10T17:16:13.712Z,40.98
2018-08-10T17:17:13.712Z,40.50
2018-08-10T17:18:13.719Z,40.78
2018-08-10T17:19:13.731Z,40.57
2018-08-10T17:20:13.734Z,41.13
2018-08-10T17:21:13.741Z,41.91
2018-08-10T17:22:13.750Z,41.91
2018-08-10T17:23:13.757Z,42.10
2018-08-10T17:24:13.763Z,40.92
2018-08-10T17:25:13.772Z,40.84
2018-08-10T17:26:13.777Z,41.03
2018-08-10T17:27:13.843Z,41.81
2018-08-10T17:28:22.438Z,41.81
2018-08-10T17:30:08.510Z,40.82
2018-08-10T17:31:08.211Z,41.30
2018-08-10T17:32:08.961Z,40.84
2018-08-10T17:33:08.234Z,41.13
2018-08-10T17:34:08.233Z,40.84
2018-08-10T17:36:43.927Z,40.36
2018-08-10T17:39:11.605Z,41.35
2018-08-10T17:40:11.264Z,40.96
2018-08-10T17:41:11.263Z,40.19
2018-08-10T17:46:48.107Z,40.19
2018-08-10T17:47:47.577Z,40.86
2018-08-10T17:50:20.328Z,40.47
2018-08-10T17:51:11.666Z,40.28
